createdAt,value
2022-11-20T00:01:31.622Z,90.30
2022-11-20T00:03:59.342Z,90.40
2022-11-20T00:06:27.539Z,90.40
2022-11-20T00:08:59.081Z,90.40
2022-11-20T00:11:27.537Z,90.40
2022-11-20T00:13:58.052Z,90.40
2022-11-20T00:16:27.398Z,90.40
2022-11-20T00:18:54.747Z,90.30
2022-11-20T00:21:24.329Z,90.30
2022-11-20T00:23:54.896Z,90.20
2022-11-20T00:26:23.456Z,90.10
2022-11-20T00:28:52.428Z,90.10
2022-11-20T00:31:19.560Z,90.20
2022-11-20T00:33:46.965Z,90.10
2022-11-20T00:36:17.140Z,90.10
2022-11-20T00:38:44.621Z,90.00
2022-11-20T00:41:13.927Z,89.90
2022-11-20T00:43:41.042Z,89.90
2022-11-20T00:46:19.273Z,89.70
2022-11-20T00:48:46.560Z,89.70
2022-11-20T00:51:15.976Z,89.80
2022-11-20T00:53:42.974Z,90.00
2022-11-20T00:56:12.919Z,90.00
2022-11-20T00:58:42.520Z,90.00
2022-11-20T01:01:10.501Z,90.00
2022-11-20T01:03:40.364Z,90.10
2022-11-20T01:06:11.023Z,90.20
2022-11-20T01:08:38.420Z,90.20
2022-11-20T01:11:08.518Z,90.20
2022-11-20T01:13:38.872Z,90.30
2022-11-20T01:16:07.180Z,90.20
2022-11-20T01:18:34.160Z,90.20
2022-11-20T01:21:06.166Z,90.20
2022-11-20T01:23:34.437Z,90.20
2022-11-20T01:26:03.568Z,90.10
2022-11-20T01:28:30.715Z,90.20
2022-11-20T01:30:57.809Z,90.30
2022-11-20T01:33:24.908Z,90.30
2022-11-20T01:35:51.746Z,90.30
2022-11-20T01:38:18.849Z,90.30
2022-11-20T01:40:45.658Z,90.30
2022-11-20T01:43:22.188Z,90.30
2022-11-20T01:46:16.558Z,90.30
2022-11-20T01:48:57.070Z,90.30
2022-11-20T01:52:05.453Z,90.30
2022-11-20T01:54:51.596Z,90.40
2022-11-20T01:57:19.608Z,90.40
2022-11-20T01:59:55.103Z,90.40
2022-11-20T02:02:22.498Z,90.30
2022-11-20T02:04:52.701Z,90.30
2022-11-20T02:07:20.894Z,90.10
2022-11-20T02:09:48.269Z,90.10
2022-11-20T02:12:35.488Z,90.20
2022-11-20T02:15:02.550Z,90.20
2022-11-20T02:17:29.407Z,90.00
2022-11-20T02:19:56.612Z,90.00
2022-11-20T02:22:30.139Z,90.00
2022-11-20T02:24:59.816Z,90.00
2022-11-20T02:27:27.647Z,90.10
2022-11-20T02:30:00.177Z,90.10
2022-11-20T02:32:28.477Z,90.00
2022-11-20T02:34:55.637Z,90.00
2022-11-20T02:37:22.808Z,90.00
2022-11-20T02:39:52.135Z,90.00
2022-11-20T02:42:19.564Z,90.00
2022-11-20T02:44:46.387Z,89.90
2022-11-20T02:47:13.274Z,90.00
2022-11-20T02:49:40.010Z,90.10
2022-11-20T02:52:06.749Z,90.20
2022-11-20T02:54:33.499Z,90.20
2022-11-20T02:57:00.261Z,90.20
2022-11-20T02:59:26.995Z,90.40
2022-11-20T03:01:53.747Z,90.40
2022-11-20T03:04:20.854Z,90.30
2022-11-20T03:06:47.587Z,90.30
2022-11-20T03:09:14.300Z,90.40
2022-11-20T03:11:41.070Z,90.40
2022-11-20T03:14:07.894Z,90.40
2022-11-20T03:16:34.749Z,90.30
2022-11-20T03:19:01.965Z,90.30
2022-11-20T03:21:28.780Z,90.30
2022-11-20T03:23:55.932Z,90.30
2022-11-20T03:26:25.884Z,90.30
2022-11-20T03:28:55.302Z,90.40
2022-11-20T03:31:25.010Z,90.50
2022-11-20T03:33:52.154Z,90.50
2022-11-20T03:36:20.604Z,90.60
2022-11-20T03:38:48.546Z,90.60
2022-11-20T03:41:19.277Z,90.60
2022-11-20T03:43:56.416Z,90.60
2022-11-20T03:46:24.346Z,90.60
2022-11-20T03:48:52.172Z,90.70
2022-11-20T03:51:19.057Z,90.60
2022-11-20T03:53:47.396Z,90.70
2022-11-20T03:56:16.378Z,90.80
2022-11-20T03:58:43.318Z,90.70
2022-11-20T04:01:15.733Z,90.60
2022-11-20T04:03:43.139Z,90.50
2022-11-20T04:06:12.579Z,90.40
2022-11-20T04:08:39.522Z,90.40
2022-11-20T04:11:11.604Z,90.40
2022-11-20T04:13:38.521Z,90.50
2022-11-20T04:16:16.554Z,90.60
2022-11-20T04:18:44.278Z,90.60
2022-11-20T04:21:12.100Z,90.60
2022-11-20T04:23:38.971Z,90.60
2022-11-20T04:26:07.890Z,90.60
2022-11-20T04:28:35.014Z,90.60
2022-11-20T04:31:10.041Z,90.40
2022-11-20T04:33:37.853Z,90.50
2022-11-20T04:36:13.482Z,90.50
2022-11-20T04:38:40.927Z,90.40
2022-11-20T04:41:09.483Z,90.40
2022-11-20T04:43:36.226Z,90.40
2022-11-20T04:46:03.311Z,90.50
2022-11-20T04:48:31.008Z,90.60
2022-11-20T04:50:58.343Z,90.60
2022-11-20T04:53:25.498Z,90.60
2022-11-20T04:55:52.281Z,90.60
2022-11-20T04:58:19.034Z,90.70
2022-11-20T05:00:45.907Z,90.90
2022-11-20T05:03:12.701Z,90.80
2022-11-20T05:05:39.529Z,90.80
2022-11-20T05:08:06.323Z,90.90
2022-11-20T05:10:33.156Z,91.00
2022-11-20T05:12:59.935Z,91.00
2022-11-20T05:15:26.862Z,91.00
2022-11-20T05:17:54.190Z,91.10
2022-11-20T05:20:21.646Z,91.20
2022-11-20T05:22:48.432Z,91.20
2022-11-20T05:25:15.333Z,91.30
2022-11-20T05:27:42.418Z,91.30
2022-11-20T05:30:09.994Z,91.30
2022-11-20T05:32:36.741Z,91.30
2022-11-20T05:35:03.790Z,91.30
2022-11-20T05:37:30.564Z,91.40
2022-11-20T05:39:57.375Z,91.40
2022-11-20T05:42:33.153Z,91.50
2022-11-20T05:45:05.295Z,91.60
2022-11-20T05:47:36.086Z,91.60
2022-11-20T05:50:03.458Z,91.70
2022-11-20T05:52:31.599Z,91.70
2022-11-20T05:54:58.579Z,91.70
2022-11-20T05:57:25.530Z,91.80
2022-11-20T05:59:52.273Z,91.80
2022-11-20T06:02:19.091Z,91.80
2022-11-20T06:04:45.886Z,91.70
2022-11-20T06:07:12.808Z,91.80
2022-11-20T06:09:39.578Z,91.80
2022-11-20T06:12:06.871Z,91.70
2022-11-20T06:14:33.785Z,91.60
2022-11-20T06:17:01.018Z,91.50
2022-11-20T06:19:27.952Z,91.60
2022-11-20T06:21:54.692Z,91.50
2022-11-20T06:24:21.444Z,91.50
2022-11-20T06:26:48.242Z,91.40
2022-11-20T06:29:16.128Z,91.30
2022-11-20T06:31:43.571Z,91.00
2022-11-20T06:34:10.431Z,90.90
2022-11-20T06:36:37.509Z,90.90
2022-11-20T06:39:07.416Z,90.70
2022-11-20T06:41:34.153Z,90.50
2022-11-20T06:44:00.946Z,90.40
2022-11-20T06:46:28.204Z,90.40
2022-11-20T06:48:55.747Z,90.50
2022-11-20T06:51:22.571Z,90.50
2022-11-20T06:53:49.497Z,90.50
2022-11-20T06:56:16.496Z,90.60
2022-11-20T06:58:43.209Z,90.60
2022-11-20T07:01:14.873Z,90.60
2022-11-20T07:03:42.299Z,90.80
2022-11-20T07:06:09.877Z,90.90
2022-11-20T07:08:36.744Z,91.00
2022-11-20T07:11:07.144Z,90.90
2022-11-20T07:13:34.284Z,90.90
2022-11-20T07:16:04.583Z,90.80
2022-11-20T07:18:31.359Z,90.80
2022-11-20T07:21:02.016Z,90.80
2022-11-20T07:23:28.793Z,90.80
2022-11-20T07:25:55.604Z,90.70
2022-11-20T07:28:24.957Z,90.70
2022-11-20T07:30:52.983Z,90.70
2022-11-20T07:33:20.671Z,90.70
2022-11-20T07:35:47.628Z,90.70
2022-11-20T07:38:17.598Z,90.60
2022-11-20T07:40:44.384Z,90.70
2022-11-20T07:43:11.119Z,90.80
2022-11-20T07:45:37.942Z,90.90
2022-11-20T07:48:05.116Z,90.90
2022-11-20T07:50:31.888Z,90.90
2022-11-20T07:53:06.270Z,90.90
2022-11-20T07:55:33.858Z,90.80
2022-11-20T07:58:00.620Z,90.70
2022-11-20T08:00:28.378Z,90.70
2022-11-20T08:02:55.288Z,90.60
2022-11-20T08:05:22.121Z,90.70
2022-11-20T08:07:49.275Z,90.60
2022-11-20T08:10:19.528Z,90.50
2022-11-20T08:13:10.528Z,90.50
2022-11-20T08:15:38.518Z,90.40
2022-11-20T08:18:30.067Z,90.40
2022-11-20T08:20:54.688Z,90.30
2022-11-20T08:23:21.529Z,90.30
2022-11-20T08:25:51.916Z,90.30
2022-11-20T08:28:21.610Z,90.30
2022-11-20T08:30:49.292Z,90.20
2022-11-20T08:33:16.202Z,90.10
2022-11-20T08:35:43.937Z,90.10
2022-11-20T08:38:11.011Z,90.10
2022-11-20T08:40:37.778Z,90.00
2022-11-20T08:43:05.282Z,89.80
2022-11-20T08:45:34.612Z,89.80
2022-11-20T08:48:03.499Z,89.70
2022-11-20T08:50:32.636Z,89.60
2022-11-20T08:53:07.084Z,89.50
2022-11-20T08:55:36.373Z,89.40
2022-11-20T08:58:07.076Z,89.20
2022-11-20T09:00:34.770Z,89.30
2022-11-20T09:03:02.215Z,89.50
2022-11-20T09:05:30.216Z,89.40
2022-11-20T09:08:00.816Z,89.30
2022-11-20T09:10:28.507Z,89.30
2022-11-20T09:12:59.179Z,88.80
2022-11-20T09:15:26.949Z,88.30
2022-11-20T09:17:56.828Z,87.80
2022-11-20T09:20:23.997Z,87.80
2022-11-20T09:30:26.151Z,87.00
2022-11-20T09:32:52.988Z,86.70
2022-11-20T09:35:19.928Z,86.90
2022-11-20T09:37:46.840Z,87.00
2022-11-20T09:40:30.454Z,86.80
2022-11-20T09:43:06.166Z,86.40
2022-11-20T09:46:18.674Z,86.80
2022-11-20T09:48:51.980Z,86.90
2022-11-20T09:51:36.907Z,86.80
2022-11-20T09:54:20.111Z,86.40
2022-11-20T09:57:25.512Z,86.40
2022-11-20T10:00:00.446Z,86.40
2022-11-20T10:02:39.896Z,86.60
2022-11-20T10:05:40.469Z,86.60
2022-11-20T10:08:41.682Z,86.80
2022-11-20T10:11:26.875Z,86.40
2022-11-20T10:14:22.742Z,86.20
2022-11-20T10:16:57.443Z,86.70
2022-11-20T10:19:40.539Z,87.10
2022-11-20T10:22:07.296Z,86.80
2022-11-20T10:24:56.222Z,86.80
2022-11-20T10:27:47.263Z,86.90
2022-11-20T10:30:16.812Z,87.10
2022-11-20T10:33:05.886Z,87.40
2022-11-20T10:35:38.227Z,87.00
2022-11-20T10:38:16.261Z,86.30
2022-11-20T10:40:45.758Z,86.70
2022-11-20T10:43:34.666Z,87.00
2022-11-20T10:46:06.693Z,87.40
2022-11-20T10:48:34.298Z,87.80
2022-11-20T10:51:27.148Z,87.80
2022-11-20T10:54:24.778Z,87.80
2022-11-20T10:56:54.332Z,87.90
2022-11-20T10:59:36.328Z,88.00
2022-11-20T11:02:15.159Z,88.00
2022-11-20T11:04:53.794Z,88.00
2022-11-20T11:07:30.273Z,87.50
2022-11-20T11:09:57.922Z,87.20
2022-11-20T11:12:29.818Z,87.10
2022-11-20T11:14:58.644Z,87.10
2022-11-20T11:17:35.314Z,86.50
2022-11-20T11:20:12.526Z,86.40
2022-11-20T11:22:58.215Z,86.40
2022-11-20T11:25:34.658Z,86.60
2022-11-20T11:28:21.432Z,86.70
2022-11-20T11:30:50.278Z,86.20
2022-11-20T11:33:26.400Z,86.10
2022-11-20T11:35:58.393Z,85.50
2022-11-20T11:38:39.033Z,85.60
2022-11-20T11:41:08.506Z,85.70
2022-11-20T11:43:56.611Z,85.60
2022-11-20T11:46:34.759Z,85.70
2022-11-20T11:49:23.225Z,85.50
2022-11-20T11:52:09.069Z,85.60
2022-11-20T11:54:55.245Z,84.80
2022-11-20T11:57:38.939Z,85.00
2022-11-20T12:00:09.772Z,85.20
2022-11-20T12:02:45.522Z,85.30
2022-11-20T12:05:33.081Z,85.40
2022-11-20T12:08:41.886Z,84.90
2022-11-20T12:11:11.698Z,85.00
2022-11-20T12:13:59.643Z,85.30
2022-11-20T12:16:26.506Z,85.40
2022-11-20T12:18:54.098Z,85.70
2022-11-20T12:21:40.190Z,85.70
2022-11-20T12:24:30.115Z,85.00
2022-11-20T12:27:24.450Z,85.10
2022-11-20T12:30:28.237Z,85.30
2022-11-20T12:33:14.655Z,85.30
2022-11-20T12:36:08.886Z,84.90
2022-11-20T12:39:13.387Z,85.00
2022-11-20T12:42:44.188Z,84.30
2022-11-20T12:45:29.973Z,84.90
2022-11-20T12:48:15.754Z,84.80
2022-11-20T12:51:13.996Z,84.90
2022-11-20T12:53:56.213Z,84.80
2022-11-20T12:56:29.180Z,84.90
2022-11-20T12:59:28.329Z,85.10
2022-11-20T13:02:16.906Z,84.90
2022-11-20T13:04:58.821Z,84.50
2022-11-20T13:07:27.141Z,84.50
2022-11-20T13:09:55.327Z,84.90
2022-11-20T13:12:34.251Z,84.70
2022-11-20T13:15:19.115Z,84.60
2022-11-20T13:18:03.740Z,84.60
2022-11-20T13:20:32.385Z,84.70
2022-11-20T13:22:59.819Z,84.90
2022-11-20T13:25:29.631Z,85.00
2022-11-20T13:27:58.953Z,85.00
2022-11-20T13:30:30.149Z,84.90
2022-11-20T13:33:05.222Z,85.00
2022-11-20T13:35:38.204Z,85.20
2022-11-20T13:38:15.930Z,85.60
2022-11-20T13:40:56.149Z,85.60
2022-11-20T13:43:41.778Z,85.40
2022-11-20T13:46:10.682Z,85.70
2022-11-20T13:48:45.879Z,85.80
2022-11-20T13:51:19.076Z,86.00
2022-11-20T13:54:18.847Z,86.00
2022-11-20T13:57:10.511Z,85.90
2022-11-20T13:59:49.819Z,86.20
2022-11-20T14:02:19.484Z,85.90
2022-11-20T14:04:50.242Z,86.20
2022-11-20T14:07:19.749Z,86.20
2022-11-20T14:09:57.893Z,86.60
2022-11-20T14:12:33.789Z,86.80
2022-11-20T14:15:00.947Z,87.10
2022-11-20T14:17:34.073Z,87.30
2022-11-20T14:20:08.479Z,87.40
2022-11-20T14:22:35.292Z,87.50
2022-11-20T14:25:19.631Z,87.50
2022-11-20T14:27:51.991Z,87.70
2022-11-20T14:30:22.650Z,88.00
2022-11-20T14:32:50.500Z,88.20
2022-11-20T14:35:35.154Z,88.50
2022-11-20T14:38:03.438Z,88.70
2022-11-20T14:40:38.631Z,88.90
2022-11-20T14:43:29.036Z,89.00
2022-11-20T14:46:04.449Z,88.80
2022-11-20T14:48:36.037Z,88.70
2022-11-20T14:51:02.876Z,88.60
2022-11-20T14:53:29.681Z,88.80
2022-11-20T14:56:02.192Z,89.00
2022-11-20T14:58:30.722Z,89.00
2022-11-20T15:01:03.567Z,89.20
2022-11-20T15:03:41.832Z,89.30
2022-11-20T15:06:13.051Z,89.40
2022-11-20T15:08:39.943Z,89.30
2022-11-20T15:11:19.220Z,89.40
2022-11-20T15:13:46.603Z,89.40
2022-11-20T15:16:20.672Z,89.40
2022-11-20T15:18:48.390Z,89.50
2022-11-20T15:21:20.207Z,89.60
2022-11-20T15:23:46.985Z,89.80
2022-11-20T15:26:19.792Z,89.90
2022-11-20T15:28:48.855Z,89.90
2022-11-20T15:31:18.067Z,89.80
2022-11-20T15:33:44.977Z,89.70
2022-11-20T15:36:11.804Z,89.80
2022-11-20T15:38:38.663Z,89.90
2022-11-20T15:41:06.294Z,89.90
2022-11-20T15:43:33.166Z,90.00
2022-11-20T15:46:07.004Z,90.10
2022-11-20T15:48:44.640Z,90.10
2022-11-20T15:51:24.588Z,90.10
2022-11-20T15:53:51.360Z,90.20
2022-11-20T15:56:18.360Z,90.30
2022-11-20T15:58:45.164Z,90.30
2022-11-20T16:01:18.373Z,90.30
2022-11-20T16:03:45.691Z,90.30
2022-11-20T16:06:12.511Z,90.40
2022-11-20T16:08:39.371Z,90.40
2022-11-20T16:11:06.375Z,90.40
2022-11-20T16:13:52.331Z,90.40
2022-11-20T16:16:26.864Z,90.40
2022-11-20T16:18:53.610Z,90.40
2022-11-20T16:21:20.418Z,90.50
2022-11-20T16:23:47.330Z,90.60
2022-11-20T16:26:17.882Z,90.60
2022-11-20T16:28:44.787Z,90.70
2022-11-20T16:31:17.428Z,90.80
2022-11-20T16:33:49.744Z,90.90
2022-11-20T16:36:16.823Z,91.00
2022-11-20T16:38:43.668Z,91.10
2022-11-20T16:41:14.584Z,91.10
2022-11-20T16:43:49.842Z,91.10
2022-11-20T16:46:18.807Z,91.20
2022-11-20T16:48:46.020Z,91.10
2022-11-20T16:51:14.803Z,91.10
2022-11-20T16:53:42.834Z,91.20
2022-11-20T16:56:18.047Z,91.20
2022-11-20T16:58:45.751Z,91.20
2022-11-20T17:01:15.422Z,91.20
2022-11-20T17:03:44.179Z,91.30
2022-11-20T17:06:22.361Z,91.30
2022-11-20T17:08:49.334Z,91.30
2022-11-20T17:11:18.704Z,91.40
2022-11-20T17:13:46.456Z,91.50
2022-11-20T17:16:19.170Z,91.60
2022-11-20T17:18:46.607Z,91.60
2022-11-20T17:21:13.996Z,91.70
2022-11-20T17:23:42.434Z,91.60
2022-11-20T17:26:09.197Z,91.70
2022-11-20T17:28:37.162Z,91.80
2022-11-20T17:31:06.892Z,91.90
2022-11-20T17:33:36.048Z,91.80
2022-11-20T17:36:04.032Z,91.80
2022-11-20T17:38:30.978Z,91.80
2022-11-20T17:41:06.136Z,91.70
2022-11-20T17:43:35.930Z,91.70
2022-11-20T17:46:16.631Z,91.70
2022-11-20T17:48:44.451Z,91.70
2022-11-20T17:51:22.931Z,91.70
2022-11-20T17:53:52.134Z,91.60
2022-11-20T17:56:38.022Z,91.60
2022-11-20T17:59:06.414Z,91.60
2022-11-20T18:01:33.330Z,91.70
2022-11-20T18:04:00.204Z,91.80
2022-11-20T18:06:28.797Z,91.90
2022-11-20T18:08:57.706Z,92.00
2022-11-20T18:11:28.398Z,91.90
2022-11-20T18:14:17.787Z,91.80
2022-11-20T18:16:47.508Z,91.80
2022-11-20T18:19:23.420Z,91.80
2022-11-20T18:21:50.210Z,91.70
2022-11-20T18:24:20.336Z,91.70
2022-11-20T18:26:52.113Z,91.80
2022-11-20T18:29:21.791Z,92.00
2022-11-20T18:31:53.171Z,91.90
2022-11-20T18:34:41.001Z,91.90
2022-11-20T18:43:53.549Z,92.10
2022-11-20T18:46:21.994Z,92.30
2022-11-20T18:48:48.801Z,92.50
2022-11-20T18:51:17.100Z,92.50
2022-11-20T18:53:47.399Z,92.40
2022-11-20T18:56:14.751Z,92.40
2022-11-20T18:58:41.914Z,92.40
2022-11-20T19:01:08.966Z,92.60
2022-11-20T19:03:35.818Z,92.70
2022-11-20T19:06:02.685Z,92.60
2022-11-20T19:08:29.622Z,92.50
2022-11-20T19:11:06.973Z,92.40
2022-11-20T19:13:34.596Z,92.50
2022-11-20T19:16:17.848Z,92.40
2022-11-20T19:18:45.164Z,92.40
2022-11-20T19:21:17.522Z,92.50
2022-11-20T19:23:47.997Z,92.60
2022-11-20T19:26:15.346Z,92.80
2022-11-20T19:28:42.187Z,92.90
2022-11-20T19:31:14.531Z,92.90
2022-11-20T19:33:42.118Z,93.00
2022-11-20T19:36:26.303Z,93.10
2022-11-20T19:38:54.180Z,93.20
2022-11-20T19:41:29.119Z,93.10
2022-11-20T19:44:00.940Z,93.00
2022-11-20T19:46:29.241Z,93.10
2022-11-20T19:48:56.585Z,93.10
2022-11-20T19:51:31.793Z,93.20
2022-11-20T19:53:59.550Z,93.20
2022-11-20T19:56:28.602Z,93.30
2022-11-20T19:58:56.700Z,93.40
2022-11-20T20:01:26.689Z,93.40
2022-11-20T20:03:55.140Z,93.40
2022-11-20T20:06:25.356Z,93.40
2022-11-20T20:09:12.367Z,93.40
2022-11-20T20:11:40.286Z,93.50
2022-11-20T20:14:10.155Z,93.50
2022-11-20T20:16:37.184Z,93.60
2022-11-20T20:19:05.183Z,93.60
2022-11-20T20:21:34.215Z,93.60
2022-11-20T20:24:01.417Z,93.60
2022-11-20T20:26:30.374Z,93.70
2022-11-20T20:28:57.681Z,93.70
2022-11-20T20:31:27.380Z,93.70
2022-11-20T20:33:54.765Z,93.70
2022-11-20T20:36:22.988Z,93.70
2022-11-20T20:38:59.614Z,93.80
2022-11-20T20:41:26.775Z,93.90
2022-11-20T20:44:12.461Z,94.00
2022-11-20T20:46:40.122Z,94.00
2022-11-20T20:49:07.458Z,94.00
2022-11-20T20:51:35.113Z,93.80
2022-11-20T20:54:01.957Z,93.70
2022-11-20T20:56:28.764Z,93.60
2022-11-20T20:58:55.503Z,93.40
2022-11-20T21:01:23.062Z,93.30
2022-11-20T21:03:49.966Z,93.30
2022-11-20T21:06:16.837Z,93.20
2022-11-20T21:08:44.645Z,93.20
2022-11-20T21:11:17.272Z,93.10
2022-11-20T21:13:45.856Z,93.00
2022-11-20T21:16:14.914Z,92.90
2022-11-20T21:18:42.238Z,92.90
2022-11-20T21:21:31.524Z,92.90
2022-11-20T21:23:58.329Z,92.90
2022-11-20T21:26:25.578Z,92.90
2022-11-20T21:28:52.767Z,92.90
2022-11-20T21:31:25.083Z,93.00
2022-11-20T21:33:53.172Z,93.20
2022-11-20T21:36:22.847Z,93.30
2022-11-20T21:38:51.983Z,93.20
2022-11-20T21:41:19.170Z,93.20
2022-11-20T21:43:51.521Z,93.20
2022-11-20T21:46:25.850Z,93.30
2022-11-20T21:48:52.808Z,93.40
2022-11-20T21:51:22.121Z,93.40
2022-11-20T21:53:49.855Z,93.50
2022-11-20T21:56:20.762Z,93.50
2022-11-20T21:58:48.818Z,93.50
2022-11-20T22:01:21.812Z,93.60
2022-11-20T22:03:53.600Z,93.70
2022-11-20T22:06:21.414Z,93.70
2022-11-20T22:08:48.975Z,93.70
2022-11-20T22:11:18.199Z,93.80
2022-11-20T22:14:03.835Z,93.90
2022-11-20T22:16:31.224Z,93.90
2022-11-20T22:18:58.655Z,94.00
2022-11-20T22:21:27.641Z,94.10
2022-11-20T22:23:55.264Z,94.10
2022-11-20T22:26:37.348Z,94.10
2022-11-20T22:29:06.633Z,94.10
2022-11-20T22:31:33.486Z,94.10
2022-11-20T22:34:02.272Z,94.20
2022-11-20T22:36:31.130Z,94.20
2022-11-20T22:38:58.677Z,94.30
2022-11-20T22:41:29.356Z,94.30
2022-11-20T22:44:07.216Z,94.30
2022-11-20T22:46:36.434Z,94.20
2022-11-20T22:49:06.174Z,94.10
2022-11-20T22:51:35.814Z,93.80
2022-11-20T22:54:03.692Z,93.70
2022-11-20T22:56:31.165Z,93.60
2022-11-20T22:58:58.169Z,93.30
2022-11-20T23:01:31.602Z,93.00
2022-11-20T23:04:01.223Z,92.90
2022-11-20T23:06:28.565Z,92.60
2022-11-20T23:08:56.211Z,92.60
2022-11-20T23:11:28.545Z,92.50
2022-11-20T23:14:07.056Z,92.50
2022-11-20T23:16:35.039Z,92.50
2022-11-20T23:19:10.641Z,92.50
2022-11-20T23:21:39.159Z,92.40
2022-11-20T23:24:06.850Z,92.30
2022-11-20T23:26:36.422Z,92.20
2022-11-20T23:29:04.604Z,92.10
2022-11-20T23:31:33.698Z,92.10
2022-11-20T23:34:00.783Z,91.90
2022-11-20T23:36:27.710Z,91.90
2022-11-20T23:38:54.449Z,91.80
2022-11-20T23:41:21.250Z,91.70
2022-11-20T23:43:48.224Z,91.70
2022-11-20T23:46:16.821Z,91.80
2022-11-20T23:48:45.170Z,91.80
2022-11-20T23:51:12.567Z,91.80
2022-11-20T23:53:39.389Z,91.80
2022-11-20T23:56:06.459Z,91.90
2022-11-20T23:58:38.336Z,92.00
